createdAt,value
2022-08-29T00:01:06.643Z,99567.91
2022-08-29T00:03:40.771Z,99571.84
2022-08-29T00:06:12.897Z,99571.84
2022-08-29T00:08:46.601Z,99568.34
2022-08-29T00:11:18.644Z,99567.72
2022-08-29T00:13:51.332Z,99559.13
2022-08-29T00:16:22.986Z,99566.72
2022-08-29T00:18:54.565Z,99565.09
2022-08-29T00:21:26.505Z,99561.59
2022-08-29T00:23:58.694Z,99561.81
2022-08-29T00:26:30.319Z,99556.69
2022-08-29T00:29:03.258Z,99549.09
2022-08-29T00:31:34.945Z,99556.69
2022-08-29T00:34:06.565Z,99557.53
2022-08-29T00:36:38.232Z,99554.25
2022-08-29T00:39:09.834Z,99556.75
2022-08-29T00:41:41.520Z,99560.25
2022-08-29T00:44:13.180Z,99555.34
2022-08-29T00:46:52.865Z,99567.69
2022-08-29T00:49:51.280Z,99554.16
2022-08-29T00:52:31.603Z,99560.28
2022-08-29T00:55:12.212Z,99565.44
2022-08-29T00:57:46.558Z,99562.94
2022-08-29T01:00:19.177Z,99560.50
2022-08-29T01:02:51.425Z,99561.75
2022-08-29T01:05:26.160Z,99572.88
2022-08-29T01:07:58.879Z,99575.13
2022-08-29T01:10:49.629Z,99561.56
2022-08-29T01:13:29.142Z,99575.38
2022-08-29T01:16:06.795Z,99570.59
2022-08-29T01:18:40.660Z,99570.59
2022-08-29T01:21:35.242Z,99571.44
2022-08-29T01:24:15.269Z,99568.75
2022-08-29T01:26:47.942Z,99569.59
2022-08-29T01:29:19.876Z,99572.69
2022-08-29T01:31:57.056Z,99576.19
2022-08-29T01:34:30.172Z,99575.75
2022-08-29T01:37:05.549Z,99566.69
2022-08-29T01:39:41.649Z,99578.03
2022-08-29T01:42:20.522Z,99567.78
2022-08-29T01:44:57.776Z,99572.06
2022-08-29T01:47:34.928Z,99573.13
2022-08-29T01:50:12.888Z,99579.88
2022-08-29T01:52:48.000Z,99585.22
2022-08-29T01:55:19.682Z,99586.03
2022-08-29T01:57:51.256Z,99580.06
2022-08-29T02:00:27.529Z,99584.81
2022-08-29T02:03:01.194Z,99587.88
2022-08-29T02:05:32.869Z,99579.28
2022-08-29T02:08:04.680Z,99580.69
2022-08-29T02:10:36.802Z,99570.84
2022-08-29T02:13:08.521Z,99582.16
2022-08-29T02:15:40.151Z,99581.53
2022-08-29T02:18:11.758Z,99579.69
2022-08-29T02:20:43.498Z,99576.38
2022-08-29T02:23:30.181Z,99577.22
2022-08-29T02:26:03.656Z,99577.22
2022-08-29T02:28:37.577Z,99569.44
2022-08-29T02:31:09.878Z,99587.09
2022-08-29T02:33:41.546Z,99575.16
2022-08-29T02:36:14.217Z,99579.91
2022-08-29T02:38:47.209Z,99578.66
2022-08-29T02:41:19.276Z,99572.91
2022-08-29T02:43:50.886Z,99581.53
2022-08-29T02:46:22.959Z,99585.84
2022-08-29T02:49:00.942Z,99582.38
2022-08-29T02:51:34.174Z,99576.81
2022-08-29T02:54:05.834Z,99584.00
2022-08-29T02:56:38.040Z,99570.44
2022-08-29T02:59:09.653Z,99572.91
2022-08-29T03:01:41.313Z,99578.88
2022-08-29T03:04:12.942Z,99577.22
2022-08-29T03:06:44.525Z,99578.44
2022-08-29T03:09:16.205Z,99574.94
2022-08-29T03:11:47.836Z,99573.09
2022-08-29T03:14:19.418Z,99578.66
2022-08-29T03:16:51.852Z,99572.91
2022-08-29T03:19:23.433Z,99570.41
2022-08-29T03:21:55.477Z,99579.88
2022-08-29T03:24:28.133Z,99577.22
2022-08-29T03:26:59.726Z,99581.72
2022-08-29T03:29:31.289Z,99582.56
2022-08-29T03:32:03.190Z,99578.44
2022-08-29T03:34:34.824Z,99591.56
2022-08-29T03:37:06.485Z,99595.88
2022-08-29T03:39:40.957Z,99593.81
2022-08-29T03:42:12.754Z,99590.75
2022-08-29T03:44:44.364Z,99582.94
2022-08-29T03:47:16.117Z,99587.63
2022-08-29T03:49:47.738Z,99585.38
2022-08-29T03:52:19.358Z,99585.53
2022-08-29T03:54:51.000Z,99577.72
2022-08-29T03:57:22.570Z,99586.94
2022-08-29T03:59:54.366Z,99591.88
2022-08-29T04:02:26.132Z,99591.44
2022-08-29T04:05:10.007Z,99595.13
2022-08-29T04:07:54.197Z,99594.91
2022-08-29T04:10:33.127Z,99604.75
2022-08-29T04:13:07.005Z,99603.34
2022-08-29T04:15:42.992Z,99608.84
2022-08-29T04:18:15.672Z,99615.22
2022-08-29T04:21:01.945Z,99611.72
2022-08-29T04:23:36.194Z,99616.03
2022-08-29T04:26:35.857Z,99612.75
2022-08-29T04:29:10.710Z,99620.75
2022-08-29T04:31:43.594Z,99621.75
2022-08-29T04:34:15.349Z,99627.06
2022-08-29T04:36:47.295Z,99626.81
2022-08-29T04:39:19.166Z,99635.59
2022-08-29T04:41:50.818Z,99638.22
2022-08-29T04:44:22.565Z,99639.38
2022-08-29T04:46:54.220Z,99644.25
2022-08-29T04:49:25.941Z,99642.78
2022-08-29T04:51:57.757Z,99649.16
2022-08-29T04:54:29.385Z,99653.72
2022-08-29T04:57:03.300Z,99648.78
2022-08-29T04:59:37.743Z,99655.38
2022-08-29T05:02:09.533Z,99659.91
2022-08-29T05:04:41.142Z,99653.84
2022-08-29T05:07:12.868Z,99653.34
2022-08-29T05:09:44.482Z,99666.34
2022-08-29T05:12:16.697Z,99664.00
2022-08-29T05:14:48.281Z,99673.13
2022-08-29T05:17:19.909Z,99673.75
2022-08-29T05:19:51.932Z,99675.81
2022-08-29T05:22:23.702Z,99680.97
2022-08-29T05:24:57.008Z,99681.38
2022-08-29T05:27:28.605Z,99679.69
2022-08-29T05:30:01.155Z,99684.16
2022-08-29T05:32:32.820Z,99681.59
2022-08-29T05:35:04.688Z,99682.28
2022-08-29T05:37:36.578Z,99688.13
2022-08-29T05:40:09.753Z,99689.44
2022-08-29T05:42:41.902Z,99691.31
2022-08-29T05:45:13.557Z,99693.31
2022-08-29T05:47:45.660Z,99694.84
2022-08-29T05:50:18.097Z,99691.34
2022-08-29T05:52:49.676Z,99695.19
2022-08-29T05:55:21.332Z,99690.06
2022-08-29T05:57:54.506Z,99682.84
2022-08-29T06:00:26.101Z,99684.91
2022-08-29T06:02:57.803Z,99691.63
2022-08-29T06:05:29.497Z,99693.13
2022-08-29T06:08:01.486Z,99691.19
2022-08-29T06:10:33.559Z,99696.91
2022-08-29T06:13:05.138Z,99696.81
2022-08-29T06:15:36.825Z,99704.16
2022-08-29T06:18:08.555Z,99701.50
2022-08-29T06:20:40.752Z,99702.88
2022-08-29T06:23:12.352Z,99708.03
2022-08-29T06:25:43.945Z,99712.41
2022-08-29T06:28:23.756Z,99707.88
2022-08-29T06:30:55.835Z,99695.72
2022-08-29T06:33:27.512Z,99698.88
2022-08-29T06:35:59.082Z,99698.06
2022-08-29T06:38:30.799Z,99702.53
2022-08-29T06:41:12.154Z,99701.47
2022-08-29T06:43:43.897Z,99705.25
2022-08-29T06:46:33.866Z,99711.78
2022-08-29T06:49:08.425Z,99705.22
2022-08-29T06:51:42.433Z,99708.16
2022-08-29T06:54:14.151Z,99705.22
2022-08-29T06:56:46.197Z,99713.31
2022-08-29T06:59:18.974Z,99713.25
2022-08-29T07:01:50.758Z,99704.91
2022-08-29T07:04:22.516Z,99695.53
2022-08-29T07:06:55.154Z,99708.41
2022-08-29T07:09:26.744Z,99704.91
2022-08-29T07:11:58.377Z,99706.81
2022-08-29T07:14:29.981Z,99711.97
2022-08-29T07:17:01.642Z,99717.09
2022-08-29T07:19:33.224Z,99718.75
2022-08-29T07:22:05.070Z,99709.91
2022-08-29T07:24:39.609Z,99711.34
2022-08-29T07:27:12.048Z,99714.13
2022-08-29T07:29:45.643Z,99719.63
2022-08-29T07:32:25.655Z,99719.34
2022-08-29T07:34:57.549Z,99720.16
2022-08-29T07:37:29.164Z,99720.66
2022-08-29T07:40:00.784Z,99719.84
2022-08-29T07:42:37.995Z,99720.44
2022-08-29T07:45:11.426Z,99721.56
2022-08-29T07:47:43.063Z,99719.41
2022-08-29T07:50:14.984Z,99718.97
2022-08-29T07:52:48.518Z,99721.41
2022-08-29T07:55:21.958Z,99720.97
2022-08-29T07:57:53.829Z,99725.34
2022-08-29T08:00:25.500Z,99740.16
2022-08-29T08:02:57.428Z,99738.38
2022-08-29T08:05:29.094Z,99732.28
2022-08-29T08:08:05.125Z,99735.75
2022-08-29T08:10:40.846Z,99734.78
2022-08-29T08:13:12.484Z,99726.41
2022-08-29T08:15:44.112Z,99723.34
2022-08-29T08:18:16.636Z,99728.84
2022-08-29T08:20:48.521Z,99729.03
2022-08-29T08:23:20.400Z,99730.47
2022-08-29T08:25:52.273Z,99729.06
2022-08-29T08:28:23.953Z,99735.34
2022-08-29T08:30:55.666Z,99730.63
2022-08-29T08:33:27.491Z,99737.19
2022-08-29T08:36:01.325Z,99730.66
2022-08-29T08:38:32.969Z,99724.94
2022-08-29T08:41:13.483Z,99727.41
2022-08-29T08:43:54.072Z,99733.94
2022-08-29T08:46:37.175Z,99727.69
2022-08-29T08:49:33.897Z,99729.69
2022-08-29T08:52:12.347Z,99724.16
2022-08-29T08:54:53.410Z,99723.31
2022-08-29T08:57:32.266Z,99726.59
2022-08-29T09:00:06.397Z,99721.84
2022-08-29T09:03:03.615Z,99724.31
2022-08-29T09:06:20.602Z,99718.72
2022-08-29T09:09:22.836Z,99716.59
2022-08-29T09:12:16.315Z,99719.03
2022-08-29T09:15:04.222Z,99718.94
2022-08-29T09:17:48.638Z,99715.50
2022-08-29T09:20:28.668Z,99717.41
2022-08-29T09:23:30.621Z,99718.38
2022-08-29T09:26:02.484Z,99709.00
2022-08-29T09:28:35.450Z,99713.06
2022-08-29T09:31:29.768Z,99712.88
2022-08-29T09:34:12.072Z,99713.88
2022-08-29T09:36:46.036Z,99715.63
2022-08-29T09:39:29.766Z,99716.22
2022-08-29T09:42:13.696Z,99715.66
2022-08-29T09:44:54.672Z,99709.97
2022-08-29T09:47:31.950Z,99711.94
2022-08-29T09:50:12.650Z,99721.91
2022-08-29T09:53:24.628Z,99716.88
2022-08-29T09:56:10.405Z,99720.00
2022-08-29T09:58:42.901Z,99716.66
2022-08-29T10:01:25.629Z,99714.94
2022-08-29T10:04:03.493Z,99715.50
2022-08-29T10:06:45.105Z,99707.31
2022-08-29T10:09:28.043Z,99706.78
2022-08-29T10:12:14.255Z,99709.09
2022-08-29T10:14:54.436Z,99708.25
2022-08-29T10:17:57.181Z,99706.19
2022-08-29T10:20:44.284Z,99702.81
2022-08-29T10:23:59.733Z,99696.19
2022-08-29T10:27:10.616Z,99698.75
2022-08-29T10:30:08.046Z,99693.84
2022-08-29T10:33:30.106Z,99697.13
2022-08-29T10:36:13.062Z,99701.50
2022-08-29T10:39:03.079Z,99689.53
2022-08-29T10:41:40.380Z,99694.97
2022-08-29T10:44:52.075Z,99694.00
2022-08-29T10:47:36.643Z,99684.78
2022-08-29T10:50:43.160Z,99694.19
2022-08-29T10:53:31.728Z,99678.03
2022-08-29T10:56:30.371Z,99682.47
2022-08-29T10:59:29.352Z,99678.75
2022-08-29T11:02:08.618Z,99668.66
2022-08-29T11:04:56.662Z,99668.06
2022-08-29T11:07:46.958Z,99669.63
2022-08-29T11:10:24.859Z,99669.75
2022-08-29T11:12:58.359Z,99661.25
2022-08-29T11:15:52.603Z,99667.09
2022-08-29T11:18:24.287Z,99667.41
2022-08-29T11:21:12.865Z,99646.81
2022-08-29T11:23:48.510Z,99656.53
2022-08-29T11:26:22.936Z,99646.41
2022-08-29T11:29:39.094Z,99647.25
2022-08-29T11:32:33.578Z,99652.13
2022-08-29T11:35:20.617Z,99654.34
2022-08-29T11:38:18.848Z,99655.25
2022-08-29T11:44:03.285Z,99654.13
2022-08-29T11:46:42.943Z,99642.47
2022-08-29T11:49:41.501Z,99642.84
2022-08-29T11:52:12.995Z,99640.75
2022-08-29T11:54:52.134Z,99635.50
2022-08-29T11:57:31.751Z,99644.91
2022-08-29T12:00:38.992Z,99637.00
2022-08-29T12:03:29.840Z,99640.38
2022-08-29T12:06:14.521Z,99655.53
2022-08-29T12:09:05.357Z,99652.81
2022-08-29T12:12:12.880Z,99647.41
2022-08-29T12:14:48.247Z,99648.44
2022-08-29T12:17:19.769Z,99643.47
2022-08-29T12:20:41.358Z,99643.84
2022-08-29T12:23:12.858Z,99635.78
2022-08-29T12:28:48.676Z,99635.44
2022-08-29T12:31:30.748Z,99633.09
2022-08-29T12:34:17.217Z,99626.25
2022-08-29T12:37:16.786Z,99620.63
2022-08-29T12:40:06.943Z,99626.66
2022-08-29T12:42:56.653Z,99621.72
2022-08-29T12:45:30.322Z,99626.34
2022-08-29T12:48:12.958Z,99617.00
2022-08-29T12:50:48.210Z,99606.44
2022-08-29T12:53:25.486Z,99606.88
2022-08-29T12:56:01.195Z,99592.03
2022-08-29T12:58:48.018Z,99594.47
2022-08-29T13:01:28.368Z,99577.75
2022-08-29T13:04:10.627Z,99588.78
2022-08-29T13:07:04.730Z,99588.38
2022-08-29T13:09:51.867Z,99581.50
2022-08-29T13:12:27.193Z,99573.34
2022-08-29T13:15:08.604Z,99570.75
2022-08-29T13:17:42.541Z,99573.50
2022-08-29T13:20:42.836Z,99572.25
2022-08-29T13:23:31.766Z,99570.13
2022-08-29T13:26:20.542Z,99573.94
2022-08-29T13:32:19.467Z,99579.53
2022-08-29T13:35:21.478Z,99572.19
2022-08-29T13:38:26.538Z,99571.97
2022-08-29T13:40:58.783Z,99568.69
2022-08-29T13:43:43.102Z,99569.22
2022-08-29T13:46:30.345Z,99563.50
2022-08-29T13:49:03.639Z,99564.34
2022-08-29T13:51:35.338Z,99565.16
2022-08-29T13:54:06.972Z,99558.94
2022-08-29T13:56:38.731Z,99556.22
2022-08-29T13:59:11.881Z,99553.25
2022-08-29T14:04:38.957Z,99560.03
2022-08-29T14:07:25.278Z,99555.44
2022-08-29T14:09:57.535Z,99551.34
2022-08-29T14:12:32.927Z,99548.38
2022-08-29T14:15:09.854Z,99549.97
2022-08-29T14:17:41.870Z,99544.28
2022-08-29T14:20:15.314Z,99541.28
2022-08-29T14:22:48.047Z,99545.66
2022-08-29T14:25:21.485Z,99545.38
2022-08-29T14:27:56.382Z,99538.31
2022-08-29T14:30:28.113Z,99539.13
2022-08-29T14:33:02.602Z,99539.69
2022-08-29T14:35:34.753Z,99533.13
2022-08-29T14:38:11.226Z,99537.16
2022-08-29T14:40:43.835Z,99538.28
2022-08-29T14:43:16.744Z,99529.66
2022-08-29T14:45:48.426Z,99526.41
2022-08-29T14:48:20.141Z,99523.44
2022-08-29T14:50:51.745Z,99524.22
2022-08-29T14:53:23.669Z,99525.81
2022-08-29T14:55:56.294Z,99522.03
2022-08-29T14:58:27.891Z,99524.22
2022-08-29T15:01:00.166Z,99525.56
2022-08-29T15:03:34.436Z,99528.00
2022-08-29T15:06:06.631Z,99527.50
2022-08-29T15:08:38.225Z,99517.19
2022-08-29T15:11:13.197Z,99519.88
2022-08-29T15:13:44.895Z,99512.84
2022-08-29T15:16:16.592Z,99515.78
2022-08-29T15:21:42.972Z,99510.63
2022-08-29T15:24:14.622Z,99508.13
2022-08-29T15:26:46.393Z,99510.19
2022-08-29T15:29:18.500Z,99502.63
2022-08-29T15:31:51.851Z,99512.38
2022-08-29T15:34:25.558Z,99502.00
2022-08-29T15:36:58.634Z,99501.69
2022-08-29T15:39:33.080Z,99501.41
2022-08-29T15:42:08.777Z,99503.22
2022-08-29T15:44:40.744Z,99506.16
2022-08-29T15:47:12.524Z,99501.63
2022-08-29T15:49:49.333Z,99502.72
2022-08-29T15:52:21.269Z,99509.22
2022-08-29T15:54:53.057Z,99503.53
2022-08-29T15:57:25.522Z,99509.94
2022-08-29T15:59:58.825Z,99508.53
2022-08-29T16:02:30.851Z,99506.88
2022-08-29T16:05:02.703Z,99501.22
2022-08-29T16:07:34.358Z,99497.69
2022-08-29T16:10:10.756Z,99494.38
2022-08-29T16:12:43.200Z,99497.53
2022-08-29T16:15:14.799Z,99503.72
2022-08-29T16:17:46.602Z,99497.94
2022-08-29T16:20:18.815Z,99491.72
2022-08-29T16:22:50.608Z,99491.81
2022-08-29T16:25:24.157Z,99493.69
2022-08-29T16:27:57.160Z,99491.84
2022-08-29T16:30:29.453Z,99489.69
2022-08-29T16:33:04.021Z,99486.19
2022-08-29T16:35:35.632Z,99491.72
2022-08-29T16:38:07.279Z,99499.53
2022-08-29T16:40:42.010Z,99496.03
2022-08-29T16:43:13.723Z,99497.13
2022-08-29T16:45:45.557Z,99492.03
2022-08-29T16:48:17.745Z,99500.09
2022-08-29T16:50:49.697Z,99497.13
2022-08-29T16:53:24.220Z,99506.00
2022-08-29T16:55:55.801Z,99504.53
2022-08-29T16:58:46.344Z,99504.97
2022-08-29T17:01:18.269Z,99510.09
2022-08-29T17:03:49.976Z,99508.41
2022-08-29T17:06:22.205Z,99504.69
2022-08-29T17:08:53.912Z,99503.88
2022-08-29T17:11:26.266Z,99506.84
2022-08-29T17:13:57.941Z,99497.63
2022-08-29T17:16:29.860Z,99513.03
2022-08-29T17:19:01.541Z,99507.88
2022-08-29T17:21:34.359Z,99514.25
2022-08-29T17:24:10.090Z,99508.00
2022-08-29T17:26:45.239Z,99516.09
2022-08-29T17:29:17.260Z,99523.00
2022-08-29T17:31:49.015Z,99515.56
2022-08-29T17:34:20.672Z,99521.38
2022-08-29T17:36:52.243Z,99530.78
2022-08-29T17:39:23.936Z,99526.69
2022-08-29T17:41:55.512Z,99523.34
2022-08-29T17:44:27.697Z,99532.75
2022-08-29T17:46:59.313Z,99530.31
2022-08-29T17:49:31.143Z,99525.94
2022-08-29T17:52:03.031Z,99525.59
2022-08-29T17:54:34.990Z,99533.97
2022-08-29T17:57:06.710Z,99535.84
2022-08-29T17:59:38.438Z,99538.78
2022-08-29T18:02:13.345Z,99543.59
2022-08-29T18:04:45.081Z,99551.88
2022-08-29T18:07:17.262Z,99548.56
2022-08-29T18:09:49.305Z,99560.34
2022-08-29T18:12:20.940Z,99562.94
2022-08-29T18:14:54.387Z,99572.72
2022-08-29T18:17:26.039Z,99571.44
2022-08-29T18:20:00.320Z,99577.16
2022-08-29T18:22:31.801Z,99581.66
2022-08-29T18:25:06.808Z,99588.56
2022-08-29T18:27:43.673Z,99594.22
2022-08-29T18:30:15.638Z,99594.69
2022-08-29T18:32:47.316Z,99594.63
2022-08-29T18:35:18.989Z,99597.78
2022-08-29T18:37:50.569Z,99595.56
2022-08-29T18:40:22.475Z,99597.13
2022-08-29T18:42:54.143Z,99602.06
2022-08-29T18:45:25.803Z,99604.78
2022-08-29T18:47:57.482Z,99596.63
2022-08-29T18:50:36.776Z,99608.81
2022-08-29T18:53:13.333Z,99609.28
2022-08-29T18:55:52.341Z,99610.00
2022-08-29T18:58:27.855Z,99610.59
2022-08-29T19:01:09.789Z,99603.09
2022-08-29T19:03:41.738Z,99617.81
2022-08-29T19:06:14.010Z,99622.28
2022-08-29T19:08:46.304Z,99619.16
2022-08-29T19:11:19.623Z,99629.09
2022-08-29T19:13:52.484Z,99630.84
2022-08-29T19:16:26.836Z,99628.50
2022-08-29T19:19:02.830Z,99632.59
2022-08-29T19:21:37.093Z,99633.63
2022-08-29T19:24:08.994Z,99629.53
2022-08-29T19:26:40.772Z,99633.03
2022-08-29T19:29:16.907Z,99632.22
2022-08-29T19:31:52.688Z,99633.03
2022-08-29T19:34:26.548Z,99638.41
2022-08-29T19:37:00.237Z,99633.53
2022-08-29T19:39:32.774Z,99639.34
2022-08-29T19:42:06.871Z,99639.72
2022-08-29T19:44:47.987Z,99641.78
2022-08-29T19:47:19.745Z,99635.81
2022-08-29T19:49:52.360Z,99648.91
2022-08-29T19:52:24.465Z,99651.81
2022-08-29T19:54:58.445Z,99656.16
2022-08-29T19:57:35.010Z,99653.94
2022-08-29T20:00:13.935Z,99652.75
2022-08-29T20:02:47.873Z,99657.53
2022-08-29T20:05:22.049Z,99662.16
2022-08-29T20:07:54.064Z,99663.31
2022-08-29T20:10:27.812Z,99666.22
2022-08-29T20:12:59.537Z,99670.78
2022-08-29T20:15:31.225Z,99678.38
2022-08-29T20:18:05.961Z,99680.84
2022-08-29T20:20:40.681Z,99684.56
2022-08-29T20:23:13.207Z,99678.69
2022-08-29T20:25:47.919Z,99683.47
2022-08-29T20:28:19.616Z,99684.97
2022-08-29T20:30:51.279Z,99684.16
2022-08-29T20:33:23.561Z,99689.16
2022-08-29T20:36:13.749Z,99695.56
2022-08-29T20:38:46.397Z,99693.34
2022-08-29T20:41:22.106Z,99701.63
2022-08-29T20:43:53.836Z,99706.41
2022-08-29T20:46:28.459Z,99704.53
2022-08-29T20:49:00.826Z,99709.09
2022-08-29T20:51:37.480Z,99705.56
2022-08-29T20:54:09.132Z,99716.56
2022-08-29T20:56:40.910Z,99710.47
2022-08-29T20:59:12.853Z,99710.19
2022-08-29T21:01:47.330Z,99710.94
2022-08-29T21:04:37.756Z,99705.03
2022-08-29T21:07:12.204Z,99707.59
2022-08-29T21:09:48.371Z,99707.31
2022-08-29T21:12:21.048Z,99707.94
2022-08-29T21:14:55.686Z,99703.88
2022-08-29T21:17:27.292Z,99710.63
2022-08-29T21:19:58.927Z,99710.06
2022-08-29T21:22:33.368Z,99713.56
2022-08-29T21:25:05.123Z,99718.91
2022-08-29T21:27:36.742Z,99725.31
2022-08-29T21:30:10.957Z,99733.78
2022-08-29T21:32:42.587Z,99733.06
2022-08-29T21:35:15.865Z,99728.56
2022-08-29T21:37:48.789Z,99723.06
2022-08-29T21:40:25.836Z,99729.88
2022-08-29T21:42:59.660Z,99723.13
2022-08-29T21:45:34.216Z,99720.47
2022-08-29T21:48:05.645Z,99725.06
2022-08-29T21:50:40.193Z,99722.66
2022-08-29T21:53:13.069Z,99721.91
2022-08-29T21:55:47.548Z,99715.53
2022-08-29T21:58:20.210Z,99719.28
2022-08-29T22:00:53.124Z,99720.31
2022-08-29T22:03:24.973Z,99718.28
2022-08-29T22:05:57.157Z,99723.91
2022-08-29T22:08:28.725Z,99725.97
2022-08-29T22:11:00.546Z,99720.84
2022-08-29T22:13:32.136Z,99715.91
2022-08-29T22:16:22.260Z,99719.59
2022-08-29T22:18:55.345Z,99723.56
2022-08-29T22:21:28.568Z,99719.88
2022-08-29T22:24:01.545Z,99725.88
2022-08-29T22:26:34.602Z,99719.09
2022-08-29T22:29:12.086Z,99714.97
2022-08-29T22:31:44.885Z,99712.53
2022-08-29T22:34:17.912Z,99725.72
2022-08-29T22:36:49.582Z,99728.22
2022-08-29T22:39:21.200Z,99722.28
2022-08-29T22:41:52.897Z,99724.78
2022-08-29T22:47:17.685Z,99727.28
2022-08-29T22:49:49.229Z,99722.13
2022-08-29T22:52:21.264Z,99727.69
2022-08-29T22:54:55.903Z,99729.56
2022-08-29T22:57:27.589Z,99730.00
2022-08-29T22:59:59.904Z,99731.84
2022-08-29T23:02:31.626Z,99731.44
2022-08-29T23:05:09.580Z,99723.84
2022-08-29T23:07:41.685Z,99724.47
2022-08-29T23:10:14.810Z,99741.09
2022-08-29T23:12:50.657Z,99738.88
2022-08-29T23:15:22.310Z,99737.41
2022-08-29T23:17:53.972Z,99730.66
2022-08-29T23:20:29.094Z,99733.72
2022-08-29T23:23:01.735Z,99729.41
2022-08-29T23:25:33.836Z,99734.97
2022-08-29T23:28:05.578Z,99730.88
2022-08-29T23:30:37.214Z,99726.78
2022-08-29T23:33:08.992Z,99727.19
2022-08-29T23:35:40.924Z,99724.94
2022-08-29T23:38:12.523Z,99727.81
2022-08-29T23:40:46.593Z,99725.97
2022-08-29T23:43:21.044Z,99719.81
2022-08-29T23:45:55.579Z,99716.31
2022-08-29T23:48:29.969Z,99715.72
2022-08-29T23:51:07.235Z,99715.28
2022-08-29T23:53:38.924Z,99721.66
2022-08-29T23:56:14.717Z,99714.25
2022-08-29T23:58:46.791Z,99719.81
